Time;durP1;ratioP1;P1;durP2;ratioP2;P2;SDS_P1;SDS_P2;PMS_P1;PMS_P2;Temp;Humidity;BMP_temperature;BMP_pressure;BME280_temperature;BME280_humidity;BME280_pressure;Samples;Min_cycle;Max_cycle;Signal;HPM_P1;HPM_P2
2022/03/28 00:02:05;;;;;;;13.88;5.82;;;;;;;;;;4964108;28;20232;-89
2022/03/28 00:04:31;;;;;;;15.70;4.90;;;;;;;;;;4962369;28;20631;-91
2022/03/28 00:06:56;;;;;;;11.55;4.95;;;;;;;;;;4968353;28;20060;-91
2022/03/28 00:09:21;;;;;;;14.75;4.97;;;;;;;;;;4963395;28;20034;-89
2022/03/28 00:11:47;;;;;;;13.65;4.88;;;;;;;;;;4963219;28;20094;-81
2022/03/28 00:14:12;;;;;;;13.23;4.70;;;;;;;;;;4959151;28;20135;-81
2022/03/28 00:16:37;;;;;;;11.82;4.43;;;;;;;;;;4966432;28;20041;-82
2022/03/28 00:19:03;;;;;;;13.38;4.70;;;;;;;;;;4965730;28;20025;-81
2022/03/28 00:21:28;;;;;;;15.98;4.78;;;;;;;;;;4967563;28;20125;-90
2022/03/28 00:23:54;;;;;;;14.18;4.90;;;;;;;;;;4973951;28;20106;-91
2022/03/28 00:26:20;;;;;;;13.98;4.90;;;;;;;;;;4968777;28;20034;-81
2022/03/28 00:28:46;;;;;;;11.50;4.22;;;;;;;;;;4973212;28;20030;-90
2022/03/28 00:31:11;;;;;;;13.27;5.18;;;;;;;;;;4969262;28;20052;-89
2022/03/28 00:33:36;;;;;;;14.90;4.75;;;;;;;;;;4973518;28;20043;-89
2022/03/28 00:36:03;;;;;;;10.43;4.60;;;;;;;;;;4966973;28;20077;-82
2022/03/28 00:38:28;;;;;;;12.27;4.75;;;;;;;;;;4973596;28;20058;-90
2022/03/28 00:40:53;;;;;;;14.65;4.63;;;;;;;;;;4962264;28;20054;-82
2022/03/28 00:43:19;;;;;;;11.98;4.22;;;;;;;;;;4966157;28;20039;-80
2022/03/28 00:45:44;;;;;;;12.27;4.50;;;;;;;;;;4968178;28;20509;-81
2022/03/28 00:48:11;;;;;;;12.23;4.55;;;;;;;;;;4972197;28;20066;-80
2022/03/28 00:50:37;;;;;;;12.15;4.18;;;;;;;;;;4968272;28;20034;-89
2022/03/28 00:53:05;;;;;;;11.27;4.53;;;;;;;;;;4965887;28;20031;-83
2022/03/28 00:55:31;;;;;;;13.18;4.60;;;;;;;;;;4969741;28;20046;-80
2022/03/28 00:57:57;;;;;;;14.07;4.85;;;;;;;;;;4966597;28;20031;-90
2022/03/28 01:00:23;;;;;;;11.88;4.25;;;;;;;;;;4970272;28;20478;-81
2022/03/28 01:02:48;;;;;;;14.57;5.05;;;;;;;;;;4969425;28;20034;-82
2022/03/28 01:05:14;;;;;;;11.52;4.63;;;;;;;;;;4967786;28;20136;-81
2022/03/28 01:07:41;;;;;;;12.75;4.45;;;;;;;;;;4976354;28;20023;-84
2022/03/28 01:10:11;;;;;;;11.70;4.68;;;;;;;;;;4972805;28;20066;-92
2022/03/28 01:12:38;;;;;;;14.77;4.32;;;;;;;;;;4970970;28;20163;-90
2022/03/28 01:15:04;;;;;;;12.95;4.53;;;;;;;;;;4967781;28;20041;-81
2022/03/28 01:20:14;;;;;;;14.80;4.70;;;;;;;;;;4974867;28;20124;-82
2022/03/28 01:22:40;;;;;;;15.10;4.57;;;;;;;;;;4970392;28;20042;-86
2022/03/28 01:25:07;;;;;;;10.50;3.95;;;;;;;;;;4972765;28;20035;-82
2022/03/28 01:27:36;;;;;;;13.75;4.65;;;;;;;;;;4966482;28;20039;-80
2022/03/28 01:30:04;;;;;;;14.27;4.30;;;;;;;;;;4963609;28;20509;-89
2022/03/28 01:32:30;;;;;;;11.38;4.63;;;;;;;;;;4967936;28;20077;-89
2022/03/28 01:34:55;;;;;;;13.77;4.60;;;;;;;;;;4969955;28;20126;-90
2022/03/28 01:37:20;;;;;;;14.73;4.50;;;;;;;;;;4965220;28;20029;-81
2022/03/28 01:39:45;;;;;;;12.18;4.90;;;;;;;;;;4972743;28;20034;-89
2022/03/28 01:42:11;;;;;;;12.95;4.40;;;;;;;;;;4972063;28;20023;-90
2022/03/28 01:44:36;;;;;;;15.05;4.43;;;;;;;;;;4970060;28;20042;-81
2022/03/28 01:47:01;;;;;;;14.82;4.40;;;;;;;;;;4962481;28;20399;-90
2022/03/28 01:49:27;;;;;;;11.60;3.92;;;;;;;;;;4962086;28;20027;-84
2022/03/28 01:51:52;;;;;;;12.55;4.53;;;;;;;;;;4969382;28;20822;-82
2022/03/28 01:54:18;;;;;;;11.90;4.57;;;;;;;;;;4966547;28;20610;-80
2022/03/28 01:56:43;;;;;;;11.73;4.40;;;;;;;;;;4966489;28;20030;-88
2022/03/28 01:59:10;;;;;;;12.50;4.22;;;;;;;;;;4966796;28;20022;-81
2022/03/28 02:01:35;;;;;;;13.80;3.90;;;;;;;;;;4963704;28;20037;-80
2022/03/28 02:04:01;;;;;;;15.40;4.25;;;;;;;;;;4974308;28;20034;-81
2022/03/28 02:06:28;;;;;;;9.10;3.65;;;;;;;;;;4969130;28;20031;-81
2022/03/28 02:08:53;;;;;;;14.07;4.45;;;;;;;;;;4968168;28;20109;-90
2022/03/28 02:11:19;;;;;;;12.95;4.38;;;;;;;;;;4970607;28;20279;-82
2022/03/28 02:13:44;;;;;;;11.93;4.45;;;;;;;;;;4976432;28;20686;-88
2022/03/28 02:16:09;;;;;;;10.63;3.65;;;;;;;;;;4975387;28;20034;-89
2022/03/28 02:18:35;;;;;;;11.75;3.92;;;;;;;;;;4972318;28;20126;-91
2022/03/28 02:21:01;;;;;;;12.80;4.10;;;;;;;;;;4968034;28;20399;-81
2022/03/28 02:23:27;;;;;;;12.00;4.53;;;;;;;;;;4973638;28;20038;-90
2022/03/28 02:25:52;;;;;;;11.95;4.05;;;;;;;;;;4972312;28;20031;-81
2022/03/28 02:28:18;;;;;;;9.80;3.55;;;;;;;;;;4974231;28;20026;-81
2022/03/28 02:30:43;;;;;;;16.17;4.40;;;;;;;;;;4967873;28;20037;-91
2022/03/28 02:33:09;;;;;;;13.88;4.03;;;;;;;;;;4971526;28;20027;-88
2022/03/28 02:35:34;;;;;;;10.43;3.80;;;;;;;;;;4966628;28;20026;-82
2022/03/28 02:38:01;;;;;;;13.85;4.10;;;;;;;;;;4967329;28;20198;-91
2022/03/28 02:40:31;;;;;;;9.48;3.75;;;;;;;;;;4964856;28;20035;-90
2022/03/28 02:42:57;;;;;;;17.67;4.82;;;;;;;;;;4968333;28;20039;-82
2022/03/28 02:45:27;;;;;;;12.93;4.95;;;;;;;;;;4967268;28;20089;-82
2022/03/28 02:47:52;;;;;;;11.18;4.07;;;;;;;;;;4967957;28;20038;-81
2022/03/28 02:50:18;;;;;;;11.82;3.42;;;;;;;;;;4966054;28;20037;-89
2022/03/28 02:52:43;;;;;;;10.45;3.67;;;;;;;;;;4972409;28;20058;-89
2022/03/28 02:55:09;;;;;;;10.52;4.22;;;;;;;;;;4974251;28;20038;-89
2022/03/28 02:57:34;;;;;;;13.00;4.07;;;;;;;;;;4962038;28;20035;-88
2022/03/28 03:00:00;;;;;;;13.43;3.95;;;;;;;;;;4968852;28;20070;-81
2022/03/28 03:02:25;;;;;;;12.13;4.18;;;;;;;;;;4963831;28;20080;-81
2022/03/28 03:04:51;;;;;;;15.15;3.97;;;;;;;;;;4966249;28;20089;-88
2022/03/28 03:07:17;;;;;;;11.30;3.70;;;;;;;;;;4966898;28;20026;-89
2022/03/28 03:09:43;;;;;;;13.63;3.95;;;;;;;;;;4970587;28;20068;-80
2022/03/28 03:12:09;;;;;;;12.00;3.50;;;;;;;;;;4966470;28;20031;-80
2022/03/28 03:14:34;;;;;;;12.00;3.97;;;;;;;;;;4966365;28;20141;-90
2022/03/28 03:16:59;;;;;;;11.13;3.50;;;;;;;;;;4964737;28;20066;-89
2022/03/28 03:19:24;;;;;;;12.95;4.05;;;;;;;;;;4970797;28;20034;-82
2022/03/28 03:21:50;;;;;;;12.68;3.70;;;;;;;;;;4965439;28;20047;-81
2022/03/28 03:24:15;;;;;;;12.93;3.90;;;;;;;;;;4970939;28;20023;-91
2022/03/28 03:26:42;;;;;;;13.38;3.97;;;;;;;;;;4973250;28;20030;-80
2022/03/28 03:29:07;;;;;;;10.88;3.53;;;;;;;;;;4969145;28;20030;-88
2022/03/28 03:31:33;;;;;;;12.25;4.10;;;;;;;;;;4962459;28;20038;-81
2022/03/28 03:33:59;;;;;;;11.18;3.50;;;;;;;;;;4961716;28;20478;-81
2022/03/28 03:36:24;;;;;;;13.75;3.90;;;;;;;;;;4965835;28;20026;-81
2022/03/28 03:38:50;;;;;;;10.25;3.33;;;;;;;;;;4969913;28;20053;-81
2022/03/28 03:41:15;;;;;;;10.30;3.72;;;;;;;;;;4968740;28;20050;-89
2022/03/28 03:43:41;;;;;;;16.88;4.50;;;;;;;;;;4968096;28;20394;-81
2022/03/28 03:46:07;;;;;;;10.30;3.58;;;;;;;;;;4969913;28;20106;-82
2022/03/28 03:48:32;;;;;;;13.27;3.55;;;;;;;;;;4967003;28;20225;-82
2022/03/28 03:50:57;;;;;;;13.95;3.72;;;;;;;;;;4963815;28;20035;-89
2022/03/28 03:53:23;;;;;;;12.95;3.53;;;;;;;;;;4970293;28;20364;-88
2022/03/28 03:55:48;;;;;;;13.15;3.95;;;;;;;;;;4972907;28;20450;-80
2022/03/28 03:58:14;;;;;;;11.63;3.55;;;;;;;;;;4973250;28;20033;-80
2022/03/28 04:00:39;;;;;;;13.60;3.75;;;;;;;;;;4970150;28;20053;-87
2022/03/28 04:03:05;;;;;;;13.00;4.15;;;;;;;;;;4973004;28;20454;-90
2022/03/28 04:05:30;;;;;;;9.80;3.00;;;;;;;;;;4986764;28;20046;-80
2022/03/28 04:07:57;;;;;;;13.13;3.63;;;;;;;;;;4973659;28;20759;-90
2022/03/28 04:10:22;;;;;;;16.23;3.83;;;;;;;;;;4976575;28;20142;-89
2022/03/28 04:12:48;;;;;;;14.18;3.60;;;;;;;;;;4970587;28;20063;-89
2022/03/28 04:15:13;;;;;;;12.50;3.42;;;;;;;;;;4973833;28;20045;-81
2022/03/28 04:17:43;;;;;;;11.23;3.25;;;;;;;;;;4969997;28;20094;-89
2022/03/28 04:20:13;;;;;;;9.32;3.80;;;;;;;;;;4994035;28;20702;-80
2022/03/28 04:22:43;;;;;;;16.45;3.70;;;;;;;;;;4968428;28;20122;-80
2022/03/28 04:25:09;;;;;;;10.88;3.75;;;;;;;;;;4978684;28;20031;-88
2022/03/28 04:27:36;;;;;;;12.73;3.95;;;;;;;;;;4967697;28;20105;-81
2022/03/28 04:30:07;;;;;;;12.70;3.75;;;;;;;;;;4973896;28;20031;-81
2022/03/28 04:32:33;;;;;;;11.70;3.90;;;;;;;;;;4973613;28;20117;-81
2022/03/28 04:34:58;;;;;;;12.80;3.72;;;;;;;;;;4971181;28;20573;-88
2022/03/28 04:37:24;;;;;;;15.55;4.05;;;;;;;;;;4977775;28;20110;-80
2022/03/28 04:39:49;;;;;;;13.73;3.58;;;;;;;;;;4979308;28;20027;-88
2022/03/28 04:42:15;;;;;;;11.60;4.15;;;;;;;;;;4977509;28;20097;-81
2022/03/28 04:44:40;;;;;;;13.98;3.58;;;;;;;;;;4974030;28;20399;-80
2022/03/28 04:47:06;;;;;;;12.63;3.50;;;;;;;;;;4976324;28;20054;-89
2022/03/28 04:49:31;;;;;;;15.50;4.50;;;;;;;;;;4969618;28;20100;-80
2022/03/28 04:51:57;;;;;;;14.70;3.67;;;;;;;;;;4971006;28;20031;-89
2022/03/28 04:54:22;;;;;;;13.88;4.03;;;;;;;;;;4974041;28;20050;-90
2022/03/28 04:56:48;;;;;;;12.82;4.32;;;;;;;;;;4974294;28;20049;-80
2022/03/28 04:59:14;;;;;;;13.07;3.63;;;;;;;;;;4976755;28;20019;-82
2022/03/28 05:01:39;;;;;;;13.88;4.03;;;;;;;;;;4976841;28;20716;-88
2022/03/28 05:04:05;;;;;;;10.93;3.88;;;;;;;;;;4968856;28;20113;-87
2022/03/28 05:06:30;;;;;;;15.73;4.32;;;;;;;;;;4978785;28;20114;-82
2022/03/28 05:08:55;;;;;;;15.15;4.30;;;;;;;;;;4975116;28;20070;-81
2022/03/28 05:11:22;;;;;;;12.00;3.67;;;;;;;;;;4970792;28;20027;-89
2022/03/28 05:13:49;;;;;;;11.73;4.13;;;;;;;;;;4968161;28;20031;-80
2022/03/28 05:16:16;;;;;;;14.80;4.20;;;;;;;;;;4971201;28;20042;-89
2022/03/28 05:18:41;;;;;;;13.57;4.20;;;;;;;;;;4970161;28;20061;-81
2022/03/28 05:21:06;;;;;;;11.05;3.33;;;;;;;;;;4974367;28;20073;-90
2022/03/28 05:23:32;;;;;;;13.63;4.10;;;;;;;;;;4969774;28;20039;-89
2022/03/28 05:25:57;;;;;;;10.68;4.18;;;;;;;;;;4973844;28;20031;-81
2022/03/28 05:28:23;;;;;;;13.85;3.70;;;;;;;;;;4966307;28;20031;-88
2022/03/28 05:30:49;;;;;;;12.20;3.92;;;;;;;;;;4964298;28;20069;-81
2022/03/28 05:33:14;;;;;;;12.02;4.47;;;;;;;;;;4967302;28;20039;-89
2022/03/28 05:35:42;;;;;;;13.20;4.10;;;;;;;;;;4964594;28;20018;-81
2022/03/28 05:38:08;;;;;;;14.45;4.15;;;;;;;;;;4966069;28;20081;-82
2022/03/28 05:40:33;;;;;;;14.38;4.10;;;;;;;;;;4971085;28;20035;-88
2022/03/28 05:42:59;;;;;;;11.95;4.32;;;;;;;;;;4969070;28;20551;-89
2022/03/28 05:45:25;;;;;;;9.73;3.85;;;;;;;;;;4969123;28;20485;-86
2022/03/28 05:47:50;;;;;;;13.95;4.57;;;;;;;;;;4963389;28;20514;-80
2022/03/28 05:50:16;;;;;;;11.13;3.90;;;;;;;;;;4969214;28;20051;-80
2022/03/28 05:52:41;;;;;;;13.35;4.25;;;;;;;;;;4972231;28;20093;-91
2022/03/28 05:55:07;;;;;;;12.82;4.38;;;;;;;;;;4971034;28;20390;-89
2022/03/28 05:57:33;;;;;;;11.60;4.40;;;;;;;;;;4964873;28;20522;-88
2022/03/28 05:59:58;;;;;;;11.05;3.80;;;;;;;;;;4971494;28;20031;-80
2022/03/28 06:02:24;;;;;;;13.48;4.40;;;;;;;;;;4974491;28;20062;-90
2022/03/28 06:04:50;;;;;;;11.73;4.05;;;;;;;;;;4971676;28;20034;-81
2022/03/28 06:07:15;;;;;;;11.60;3.85;;;;;;;;;;4970388;28;20061;-81
2022/03/28 06:09:40;;;;;;;14.77;4.72;;;;;;;;;;4972318;28;20486;-89
2022/03/28 06:12:06;;;;;;;12.98;4.30;;;;;;;;;;4967861;28;20026;-89
2022/03/28 06:14:32;;;;;;;13.30;4.57;;;;;;;;;;4973850;28;20027;-90
2022/03/28 06:16:57;;;;;;;9.85;4.03;;;;;;;;;;4979506;28;20048;-88
2022/03/28 06:19:23;;;;;;;13.45;4.68;;;;;;;;;;4980773;28;20019;-90
2022/03/28 06:21:48;;;;;;;16.25;4.55;;;;;;;;;;4969705;28;20422;-82
2022/03/28 06:24:13;;;;;;;12.48;4.93;;;;;;;;;;4977606;28;20486;-82
2022/03/28 06:26:39;;;;;;;9.38;4.45;;;;;;;;;;4977091;28;20110;-81
2022/03/28 06:29:05;;;;;;;11.52;4.63;;;;;;;;;;4979232;28;20042;-81
2022/03/28 06:31:30;;;;;;;12.80;4.82;;;;;;;;;;4972886;28;20112;-81
2022/03/28 06:34:01;;;;;;;12.23;4.13;;;;;;;;;;4971629;28;20058;-89
2022/03/28 06:36:30;;;;;;;14.57;4.85;;;;;;;;;;4977502;28;20023;-88
2022/03/28 06:38:56;;;;;;;12.05;5.05;;;;;;;;;;4970359;28;20029;-89
2022/03/28 06:41:22;;;;;;;17.60;4.45;;;;;;;;;;4970777;28;20474;-80
2022/03/28 06:43:47;;;;;;;12.05;4.50;;;;;;;;;;4977364;28;20022;-81
2022/03/28 06:46:13;;;;;;;11.90;4.47;;;;;;;;;;4980569;28;20054;-92
2022/03/28 06:48:38;;;;;;;15.68;4.60;;;;;;;;;;4975295;28;20045;-82
2022/03/28 06:51:06;;;;;;;12.88;4.80;;;;;;;;;;4978764;28;20486;-89
2022/03/28 06:53:31;;;;;;;12.32;4.75;;;;;;;;;;4978455;28;20033;-81
2022/03/28 06:55:57;;;;;;;12.57;4.88;;;;;;;;;;4979742;28;20668;-88
2022/03/28 06:58:22;;;;;;;14.20;5.65;;;;;;;;;;4968889;28;20058;-89
2022/03/28 07:00:51;;;;;;;15.07;4.68;;;;;;;;;;4975430;28;20023;-81
2022/03/28 07:03:16;;;;;;;13.60;5.68;;;;;;;;;;4976683;28;20391;-82
2022/03/28 07:05:42;;;;;;;15.20;5.15;;;;;;;;;;4980152;28;20050;-90
2022/03/28 07:08:08;;;;;;;14.05;5.45;;;;;;;;;;4982954;28;20041;-89
2022/03/28 07:10:33;;;;;;;14.63;5.45;;;;;;;;;;4971541;28;20015;-83
2022/03/28 07:12:59;;;;;;;14.73;5.43;;;;;;;;;;4975573;28;20540;-82
2022/03/28 07:15:26;;;;;;;15.05;6.22;;;;;;;;;;4979379;28;20033;-81
2022/03/28 07:17:56;;;;;;;14.77;6.30;;;;;;;;;;4976778;28;20109;-82
2022/03/28 07:20:27;;;;;;;14.73;5.60;;;;;;;;;;4981420;28;20379;-82
2022/03/28 07:22:54;;;;;;;17.60;6.25;;;;;;;;;;4982590;28;20073;-90
2022/03/28 07:25:21;;;;;;;10.88;5.40;;;;;;;;;;4968207;28;20039;-82
2022/03/28 07:27:47;;;;;;;14.27;6.55;;;;;;;;;;4975982;28;20038;-80
2022/03/28 07:30:14;;;;;;;19.05;6.80;;;;;;;;;;4977104;28;20018;-79
2022/03/28 07:32:40;;;;;;;12.73;6.18;;;;;;;;;;4972662;28;20483;-87
2022/03/28 07:35:06;;;;;;;16.75;6.00;;;;;;;;;;4973059;28;20068;-89
2022/03/28 07:37:32;;;;;;;15.88;6.95;;;;;;;;;;4981320;28;20490;-88
2022/03/28 07:39:58;;;;;;;16.02;6.40;;;;;;;;;;4978491;28;20606;-80
2022/03/28 07:42:23;;;;;;;14.27;6.57;;;;;;;;;;4986916;28;20121;-88
2022/03/28 07:44:48;;;;;;;16.17;6.72;;;;;;;;;;4981310;28;20109;-80
2022/03/28 07:47:14;;;;;;;13.75;6.18;;;;;;;;;;4970759;28;20480;-81
2022/03/28 07:49:40;;;;;;;22.45;7.30;;;;;;;;;;4973820;28;20113;-89
2022/03/28 07:52:08;;;;;;;16.33;6.60;;;;;;;;;;4978820;28;20023;-87
2022/03/28 07:54:33;;;;;;;16.00;6.53;;;;;;;;;;4973241;28;20125;-81
2022/03/28 07:56:59;;;;;;;16.02;7.13;;;;;;;;;;4979978;28;20122;-89
2022/03/28 07:59:25;;;;;;;22.67;7.18;;;;;;;;;;4979709;28;20034;-80
2022/03/28 08:01:51;;;;;;;13.95;6.93;;;;;;;;;;4983149;28;20046;-82
2022/03/28 08:04:17;;;;;;;16.92;7.68;;;;;;;;;;4993709;28;20023;-82
2022/03/28 08:06:42;;;;;;;15.65;7.90;;;;;;;;;;4971816;28;20494;-87
2022/03/28 08:09:08;;;;;;;19.58;8.05;;;;;;;;;;4978408;28;20068;-81
2022/03/28 08:11:33;;;;;;;17.92;8.00;;;;;;;;;;4978922;28;20106;-80
2022/03/28 08:14:00;;;;;;;17.13;7.93;;;;;;;;;;4980528;28;20033;-80
2022/03/28 08:16:26;;;;;;;19.65;8.45;;;;;;;;;;4979731;28;20030;-81
2022/03/28 08:18:51;;;;;;;19.65;8.80;;;;;;;;;;4984772;28;20088;-81
2022/03/28 08:21:17;;;;;;;20.50;9.25;;;;;;;;;;4981968;28;20414;-82
2022/03/28 08:23:42;;;;;;;20.60;9.23;;;;;;;;;;4976240;28;20039;-88
2022/03/28 08:26:08;;;;;;;20.13;9.50;;;;;;;;;;4972583;28;20194;-89
2022/03/28 08:28:34;;;;;;;21.40;9.30;;;;;;;;;;4971086;28;20019;-87
2022/03/28 08:30:59;;;;;;;18.15;9.25;;;;;;;;;;4971600;28;20110;-82
2022/03/28 08:33:25;;;;;;;22.98;9.15;;;;;;;;;;4970686;28;20043;-81
2022/03/28 08:35:50;;;;;;;22.75;9.00;;;;;;;;;;4974907;28;20029;-80
2022/03/28 08:38:16;;;;;;;17.17;8.60;;;;;;;;;;4981539;28;20023;-87
2022/03/28 08:40:42;;;;;;;18.08;9.25;;;;;;;;;;4968935;28;20035;-80
2022/03/28 08:43:08;;;;;;;22.45;9.55;;;;;;;;;;4985794;28;20446;-81
2022/03/28 08:45:38;;;;;;;22.35;9.05;;;;;;;;;;4974566;28;20027;-88
2022/03/28 08:48:05;;;;;;;19.92;9.38;;;;;;;;;;4969524;28;20479;-92
2022/03/28 08:50:34;;;;;;;23.33;9.52;;;;;;;;;;4979774;28;20652;-88
2022/03/28 08:53:00;;;;;;;24.23;10.52;;;;;;;;;;4982821;28;20411;-81
2022/03/28 08:55:25;;;;;;;22.67;10.57;;;;;;;;;;4979002;28;20037;-89
2022/03/28 08:57:51;;;;;;;21.55;10.30;;;;;;;;;;4983033;28;20084;-82
2022/03/28 09:00:16;;;;;;;21.45;10.57;;;;;;;;;;4979121;28;20038;-88
2022/03/28 09:02:47;;;;;;;19.67;11.32;;;;;;;;;;4984973;28;20042;-83
2022/03/28 09:05:14;;;;;;;22.98;11.65;;;;;;;;;;4979715;28;20402;-82
2022/03/28 09:07:40;;;;;;;23.55;11.75;;;;;;;;;;4973813;28;20021;-82
2022/03/28 09:10:15;;;;;;;22.40;12.40;;;;;;;;;;4981166;28;20113;-82
2022/03/28 09:12:59;;;;;;;22.40;12.40;;;;;;;;;;4976810;28;20059;-87
2022/03/28 09:15:25;;;;;;;19.45;11.10;;;;;;;;;;4977798;28;20021;-89
2022/03/28 09:17:57;;;;;;;23.40;10.95;;;;;;;;;;4978748;28;20041;-91
2022/03/28 09:20:23;;;;;;;23.65;10.48;;;;;;;;;;4981033;28;20037;-88
2022/03/28 09:22:49;;;;;;;23.88;10.95;;;;;;;;;;4978564;28;20126;-82
2022/03/28 09:25:17;;;;;;;24.55;11.20;;;;;;;;;;4974252;28;20121;-83
2022/03/28 09:27:44;;;;;;;23.35;12.20;;;;;;;;;;4979362;28;20475;-87
2022/03/28 09:30:16;;;;;;;25.67;11.65;;;;;;;;;;4977305;28;20030;-89
2022/03/28 09:32:44;;;;;;;22.33;10.85;;;;;;;;;;4980417;28;20022;-82
2022/03/28 09:35:10;;;;;;;22.10;11.82;;;;;;;;;;4981034;28;20025;-82
2022/03/28 09:37:48;;;;;;;20.13;11.68;;;;;;;;;;4982886;28;20368;-83
2022/03/28 09:40:41;;;;;;;24.17;12.05;;;;;;;;;;4977290;28;20398;-83
2022/03/28 09:43:16;;;;;;;25.75;12.25;;;;;;;;;;4975598;28;20022;-91
2022/03/28 09:45:45;;;;;;;21.05;12.05;;;;;;;;;;4970360;28;20035;-81
2022/03/28 09:48:11;;;;;;;23.83;11.80;;;;;;;;;;4966920;28;20054;-88
2022/03/28 09:50:49;;;;;;;21.88;11.50;;;;;;;;;;4975802;28;20030;-88
2022/03/28 09:53:20;;;;;;;22.17;11.82;;;;;;;;;;4977662;28;20022;-90
2022/03/28 09:55:56;;;;;;;21.98;12.02;;;;;;;;;;4971567;28;20041;-83
2022/03/28 09:58:35;;;;;;;19.63;10.88;;;;;;;;;;4970897;28;20412;-89
2022/03/28 10:01:01;;;;;;;21.83;11.82;;;;;;;;;;4976295;28;20027;-87
2022/03/28 10:03:33;;;;;;;24.48;12.85;;;;;;;;;;4971113;28;20037;-90
2022/03/28 10:06:01;;;;;;;22.45;12.30;;;;;;;;;;4981992;28;20375;-82
2022/03/28 10:08:29;;;;;;;21.05;11.80;;;;;;;;;;4976817;28;20795;-82
2022/03/28 10:10:57;;;;;;;32.20;12.98;;;;;;;;;;4975717;28;20031;-83
2022/03/28 10:13:23;;;;;;;26.25;12.88;;;;;;;;;;4971977;28;20018;-82
2022/03/28 10:15:49;;;;;;;25.27;12.23;;;;;;;;;;4974782;28;20038;-87
2022/03/28 10:18:15;;;;;;;27.42;12.95;;;;;;;;;;4970186;28;20038;-89
2022/03/28 10:20:46;;;;;;;27.92;13.93;;;;;;;;;;4979768;28;20376;-89
2022/03/28 10:23:17;;;;;;;21.77;12.30;;;;;;;;;;4976068;28;20189;-87
2022/03/28 10:25:43;;;;;;;22.58;13.27;;;;;;;;;;4972386;28;20394;-82
2022/03/28 10:28:09;;;;;;;27.30;15.25;;;;;;;;;;4977054;28;20037;-88
2022/03/28 10:30:35;;;;;;;27.42;13.65;;;;;;;;;;4968171;28;20039;-87
2022/03/28 10:33:22;;;;;;;25.20;13.07;;;;;;;;;;4982062;28;20042;-83
2022/03/28 10:35:56;;;;;;;28.35;12.77;;;;;;;;;;4976864;28;20039;-88
2022/03/28 10:38:22;;;;;;;23.20;12.95;;;;;;;;;;4988023;28;20031;-90
2022/03/28 10:41:05;;;;;;;21.20;12.90;;;;;;;;;;4976250;28;20034;-83
2022/03/28 10:43:33;;;;;;;23.07;14.17;;;;;;;;;;4980192;28;20034;-83
2022/03/28 10:46:09;;;;;;;23.95;13.38;;;;;;;;;;4974016;28;20042;-83
2022/03/28 10:48:51;;;;;;;25.85;13.98;;;;;;;;;;4979750;28;20077;-82
2022/03/28 10:51:24;;;;;;;27.98;14.75;;;;;;;;;;4975962;28;20028;-82
2022/03/28 10:54:14;;;;;;;25.30;14.10;;;;;;;;;;4975669;28;20035;-92
2022/03/28 10:56:43;;;;;;;27.55;13.98;;;;;;;;;;4971508;28;20032;-84
2022/03/28 10:59:17;;;;;;;24.70;13.35;;;;;;;;;;4970884;28;20026;-81
2022/03/28 11:01:46;;;;;;;23.70;13.18;;;;;;;;;;4972444;28;20039;-86
2022/03/28 11:04:22;;;;;;;22.73;13.27;;;;;;;;;;4973167;28;20041;-81
2022/03/28 11:06:59;;;;;;;24.52;13.93;;;;;;;;;;4970508;28;20018;-88
2022/03/28 11:10:00;;;;;;;24.92;14.68;;;;;;;;;;4974308;28;20027;-82
2022/03/28 11:12:30;;;;;;;26.95;14.35;;;;;;;;;;4978820;28;20030;-82
2022/03/28 11:15:01;;;;;;;24.13;13.63;;;;;;;;;;4972779;28;20030;-82
2022/03/28 11:17:35;;;;;;;25.35;14.43;;;;;;;;;;4974144;28;20035;-82
2022/03/28 11:20:18;;;;;;;24.45;14.13;;;;;;;;;;4976818;28;20510;-87
2022/03/28 11:22:47;;;;;;;31.23;14.38;;;;;;;;;;4970241;28;20534;-82
2022/03/28 11:25:31;;;;;;;22.65;14.18;;;;;;;;;;4968316;28;20152;-83
2022/03/28 11:28:32;;;;;;;21.75;13.05;;;;;;;;;;4977466;28;20395;-83
2022/03/28 11:31:10;;;;;;;23.38;13.70;;;;;;;;;;4925615;28;20042;-88
2022/03/28 11:33:51;;;;;;;22.92;13.60;;;;;;;;;;4975207;28;20035;-83
2022/03/28 11:36:19;;;;;;;23.55;13.68;;;;;;;;;;4973994;28;20026;-82
2022/03/28 11:38:56;;;;;;;28.90;14.25;;;;;;;;;;4977670;28;20395;-85
2022/03/28 11:41:25;;;;;;;27.35;15.13;;;;;;;;;;4978577;28;20062;-90
2022/03/28 11:43:52;;;;;;;22.67;13.15;;;;;;;;;;4969786;28;20030;-82
2022/03/28 11:46:20;;;;;;;22.85;13.50;;;;;;;;;;4973588;28;20510;-90
2022/03/28 11:49:06;;;;;;;26.92;14.45;;;;;;;;;;4977068;28;20034;-82
2022/03/28 11:51:34;;;;;;;28.02;14.70;;;;;;;;;;4971843;28;20030;-81
2022/03/28 11:54:01;;;;;;;23.98;13.20;;;;;;;;;;4966253;28;20034;-82
2022/03/28 11:56:29;;;;;;;21.27;13.45;;;;;;;;;;4970821;28;20043;-86
2022/03/28 11:59:03;;;;;;;23.45;13.30;;;;;;;;;;4965777;28;20116;-84
2022/03/28 12:01:30;;;;;;;24.88;13.40;;;;;;;;;;4983354;28;20026;-83
2022/03/28 12:03:55;;;;;;;22.38;13.15;;;;;;;;;;4975461;28;20033;-89
2022/03/28 12:06:36;;;;;;;23.67;13.23;;;;;;;;;;4977987;28;20018;-86
2022/03/28 12:09:04;;;;;;;21.13;12.02;;;;;;;;;;4964447;28;20038;-82
2022/03/28 12:11:31;;;;;;;21.95;12.38;;;;;;;;;;4975035;28;20031;-83
2022/03/28 12:13:56;;;;;;;23.83;12.18;;;;;;;;;;4968581;28;20479;-87
2022/03/28 12:16:22;;;;;;;22.90;12.98;;;;;;;;;;4969348;28;20033;-81
2022/03/28 12:18:51;;;;;;;23.52;13.43;;;;;;;;;;4972728;28;20059;-85
2022/03/28 12:21:18;;;;;;;26.30;13.02;;;;;;;;;;4963483;28;20464;-85
2022/03/28 12:23:43;;;;;;;25.88;12.95;;;;;;;;;;4964885;28;20027;-83
2022/03/28 12:26:09;;;;;;;24.88;13.10;;;;;;;;;;4977391;28;20049;-83
2022/03/28 12:28:38;;;;;;;21.55;12.05;;;;;;;;;;4973866;28;20487;-87
2022/03/28 12:31:05;;;;;;;25.33;13.30;;;;;;;;;;4978342;28;20501;-90
2022/03/28 12:33:43;;;;;;;20.92;12.77;;;;;;;;;;4975120;28;20027;-81
2022/03/28 12:36:24;;;;;;;24.70;12.82;;;;;;;;;;4966773;28;20030;-86
2022/03/28 12:39:00;;;;;;;24.92;12.93;;;;;;;;;;4974400;28;20043;-90
2022/03/28 12:41:27;;;;;;;21.52;12.48;;;;;;;;;;4975575;28;20058;-89
2022/03/28 12:43:53;;;;;;;24.55;12.35;;;;;;;;;;4979006;28;20435;-81
2022/03/28 12:46:19;;;;;;;21.45;12.18;;;;;;;;;;4968837;28;20166;-85
2022/03/28 12:49:00;;;;;;;25.55;13.32;;;;;;;;;;4975940;28;20165;-81
2022/03/28 12:51:33;;;;;;;21.40;12.77;;;;;;;;;;4972555;28;20031;-89
2022/03/28 12:54:08;;;;;;;25.23;12.00;;;;;;;;;;4967481;28;20031;-82
2022/03/28 12:56:54;;;;;;;22.38;12.63;;;;;;;;;;4966229;28;20078;-83
2022/03/28 12:59:29;;;;;;;25.85;12.23;;;;;;;;;;4970416;28;20027;-86
2022/03/28 13:02:13;;;;;;;23.70;12.85;;;;;;;;;;4967381;28;20082;-86
2022/03/28 13:04:49;;;;;;;25.42;11.32;;;;;;;;;;4968320;28;20568;-82
2022/03/28 13:07:26;;;;;;;23.85;11.63;;;;;;;;;;4973508;28;20107;-91
2022/03/28 13:10:06;;;;;;;21.13;11.57;;;;;;;;;;4969018;28;20050;-83
2022/03/28 13:12:42;;;;;;;22.42;11.07;;;;;;;;;;4968696;28;20030;-81
2022/03/28 13:15:15;;;;;;;22.40;10.80;;;;;;;;;;4971020;28;20130;-83
2022/03/28 13:17:43;;;;;;;24.02;11.20;;;;;;;;;;4962616;28;20383;-85
2022/03/28 13:20:09;;;;;;;23.98;10.60;;;;;;;;;;4963289;28;20077;-80
2022/03/28 13:22:36;;;;;;;21.45;10.25;;;;;;;;;;4969636;28;20179;-88
2022/03/28 13:25:06;;;;;;;20.42;9.68;;;;;;;;;;4966462;28;20037;-86
2022/03/28 13:30:16;;;;;;;18.55;9.50;;;;;;;;;;4973325;28;20184;-86
2022/03/28 13:32:41;;;;;;;18.45;9.45;;;;;;;;;;4974025;28;20458;-84
2022/03/28 13:35:07;;;;;;;22.38;10.57;;;;;;;;;;4966068;28;20030;-82
2022/03/28 13:37:32;;;;;;;21.33;9.85;;;;;;;;;;4977701;28;20030;-90
2022/03/28 13:39:57;;;;;;;18.33;9.65;;;;;;;;;;4973160;28;20096;-88
2022/03/28 13:42:23;;;;;;;20.88;9.70;;;;;;;;;;4970430;28;20549;-81
2022/03/28 13:44:48;;;;;;;18.48;9.40;;;;;;;;;;4967112;28;20097;-84
2022/03/28 13:47:14;;;;;;;22.40;10.23;;;;;;;;;;4973227;28;20042;-88
2022/03/28 13:49:39;;;;;;;16.77;9.93;;;;;;;;;;4971856;28;20356;-82
2022/03/28 13:52:08;;;;;;;21.52;10.13;;;;;;;;;;4960757;28;20085;-83
2022/03/28 13:54:34;;;;;;;22.65;11.13;;;;;;;;;;4967714;28;20211;-82
2022/03/28 13:56:59;;;;;;;19.02;10.00;;;;;;;;;;4975409;28;20174;-82
2022/03/28 13:59:24;;;;;;;18.35;10.32;;;;;;;;;;4980757;28;20034;-85
2022/03/28 14:01:50;;;;;;;23.85;11.00;;;;;;;;;;4966377;28;20030;-87
2022/03/28 14:04:16;;;;;;;20.05;10.30;;;;;;;;;;4974860;28;20364;-82
2022/03/28 14:06:41;;;;;;;19.70;10.77;;;;;;;;;;4969747;28;20068;-81
2022/03/28 14:09:08;;;;;;;18.70;10.07;;;;;;;;;;4974064;28;20034;-90
2022/03/28 14:11:35;;;;;;;22.48;10.90;;;;;;;;;;4979203;28;20045;-91
2022/03/28 14:14:00;;;;;;;19.67;9.25;;;;;;;;;;4977876;28;20393;-87
2022/03/28 14:16:26;;;;;;;17.60;10.07;;;;;;;;;;4972436;28;20027;-92
2022/03/28 14:18:54;;;;;;;20.15;10.02;;;;;;;;;;4994930;28;20027;-84
2022/03/28 14:21:20;;;;;;;20.67;9.77;;;;;;;;;;4971636;28;20049;-83
2022/03/28 14:23:45;;;;;;;15.32;8.55;;;;;;;;;;4970694;28;20039;-86
2022/03/28 14:26:15;;;;;;;20.70;9.88;;;;;;;;;;4974055;28;20037;-90
2022/03/28 14:28:44;;;;;;;17.40;8.90;;;;;;;;;;4974552;28;20059;-82
2022/03/28 14:31:10;;;;;;;17.90;8.60;;;;;;;;;;4973484;28;20055;-89
2022/03/28 14:33:39;;;;;;;18.77;8.43;;;;;;;;;;4978018;28;20030;-84
2022/03/28 14:36:09;;;;;;;17.02;8.70;;;;;;;;;;4977536;28;20029;-82